Apple Creek, Ohio
Current Conditions -  °F | °C
As of 6:56 AM on Thursday 18 Dec 2014 (Local Time) from KBJJ Reporting Station
Overcast Overcast  
Wind Chill: 19°   Ceiling: 1900
Heat Index: 27°   Visibility: 10mi
Dew Point: 21°   Wind: 8mph
Humidity: 78%   Direction: 280°W
Pressure: 30.19"   Gusts: NA
Location:  40.75°N, 81.84°W
Report Text: KBJJ 181156Z AUTO 28007KT 10SM OVC019 M03/M06 A3019 RMK AO2 SLP239 T10281061 11028 21028 58001 TSNO
Loading
Personal Weather Stations






























Interactive Weather Map New forecast layout! Learn more

10-Day Weather Forecast

Advertisements
Track Severe Weather on mobile